sensor_id;sensor_type;location;lat;lon;timestamp;pressure;altitude;pressure_sealevel;temperature;humidity
21545;BME280;10933;50.754;11.508;2024-02-23T00:02:06;96988.81;;;11.25;100.00
21545;BME280;10933;50.754;11.508;2024-02-23T00:04:32;96987.84;;;11.30;100.00
21545;BME280;10933;50.754;11.508;2024-02-23T00:06:58;96985.66;;;11.32;100.00
21545;BME280;10933;50.754;11.508;2024-02-23T00:09:24;96991.03;;;11.23;100.00
21545;BME280;10933;50.754;11.508;2024-02-23T00:11:50;97012.47;;;11.19;100.00
21545;BME280;10933;50.754;11.508;2024-02-23T00:14:17;97026.44;;;11.22;100.00
21545;BME280;10933;50.754;11.508;2024-02-23T00:16:46;97027.22;;;11.13;100.00
21545;BME280;10933;50.754;11.508;2024-02-23T00:19:14;97025.31;;;11.05;100.00
21545;BME280;10933;50.754;11.508;2024-02-23T00:21:41;97061.81;;;11.11;100.00
21545;BME280;10933;50.754;11.508;2024-02-23T00:24:08;97076.72;;;11.17;100.00
21545;BME280;10933;50.754;11.508;2024-02-23T00:26:34;97038.50;;;11.07;100.00
21545;BME280;10933;50.754;11.508;2024-02-23T00:29:00;97055.78;;;11.14;100.00
21545;BME280;10933;50.754;11.508;2024-02-23T00:31:26;97053.38;;;11.04;100.00
21545;BME280;10933;50.754;11.508;2024-02-23T00:33:52;97048.13;;;10.99;100.00
21545;BME280;10933;50.754;11.508;2024-02-23T00:36:18;97048.63;;;11.01;100.00
21545;BME280;10933;50.754;11.508;2024-02-23T00:38:44;97068.72;;;10.86;100.00
21545;BME280;10933;50.754;11.508;2024-02-23T00:41:10;97098.56;;;10.90;100.00
21545;BME280;10933;50.754;11.508;2024-02-23T00:43:40;97080.00;;;10.88;100.00
21545;BME280;10933;50.754;11.508;2024-02-23T00:46:07;97098.22;;;10.83;100.00
21545;BME280;10933;50.754;11.508;2024-02-23T00:48:34;97125.94;;;10.75;100.00
21545;BME280;10933;50.754;11.508;2024-02-23T00:51:03;97132.63;;;10.77;100.00
21545;BME280;10933;50.754;11.508;2024-02-23T00:53:31;97120.50;;;10.66;100.00
21545;BME280;10933;50.754;11.508;2024-02-23T00:55:58;97157.47;;;10.66;100.00
21545;BME280;10933;50.754;11.508;2024-02-23T00:58:24;97140.31;;;10.61;100.00
21545;BME280;10933;50.754;11.508;2024-02-23T01:00:50;97174.41;;;10.57;100.00
21545;BME280;10933;50.754;11.508;2024-02-23T01:03:16;97164.03;;;10.42;100.00
21545;BME280;10933;50.754;11.508;2024-02-23T01:05:42;97173.38;;;10.45;100.00
21545;BME280;10933;50.754;11.508;2024-02-23T01:08:09;97169.34;;;10.34;100.00
21545;BME280;10933;50.754;11.508;2024-02-23T01:10:35;97193.22;;;10.26;100.00
21545;BME280;10933;50.754;11.508;2024-02-23T01:13:01;97227.44;;;10.26;100.00
21545;BME280;10933;50.754;11.508;2024-02-23T01:15:27;97256.22;;;10.17;100.00
21545;BME280;10933;50.754;11.508;2024-02-23T01:17:53;97249.03;;;10.12;100.00
21545;BME280;10933;50.754;11.508;2024-02-23T01:20:19;97257.13;;;9.98;100.00
21545;BME280;10933;50.754;11.508;2024-02-23T01:22:45;97252.84;;;9.97;100.00
21545;BME280;10933;50.754;11.508;2024-02-23T01:25:12;97270.13;;;9.96;100.00
21545;BME280;10933;50.754;11.508;2024-02-23T01:27:38;97274.72;;;9.82;100.00
21545;BME280;10933;50.754;11.508;2024-02-23T01:30:05;97280.31;;;9.72;100.00
21545;BME280;10933;50.754;11.508;2024-02-23T01:32:31;97282.72;;;9.60;100.00
21545;BME280;10933;50.754;11.508;2024-02-23T01:34:57;97290.28;;;9.58;100.00
21545;BME280;10933;50.754;11.508;2024-02-23T01:37:23;97290.09;;;9.54;100.00
21545;BME280;10933;50.754;11.508;2024-02-23T01:39:49;97284.13;;;9.43;100.00
21545;BME280;10933;50.754;11.508;2024-02-23T01:42:15;97283.41;;;9.52;100.00
21545;BME280;10933;50.754;11.508;2024-02-23T01:44:42;97289.88;;;9.37;100.00
21545;BME280;10933;50.754;11.508;2024-02-23T01:47:08;97301.06;;;9.30;100.00
21545;BME280;10933;50.754;11.508;2024-02-23T01:49:34;97304.25;;;9.32;100.00
21545;BME280;10933;50.754;11.508;2024-02-23T01:52:01;97316.16;;;9.26;100.00
21545;BME280;10933;50.754;11.508;2024-02-23T01:54:29;97317.38;;;9.20;100.00
21545;BME280;10933;50.754;11.508;2024-02-23T01:56:56;97315.84;;;9.14;100.00
21545;BME280;10933;50.754;11.508;2024-02-23T01:59:23;97321.81;;;9.11;100.00
21545;BME280;10933;50.754;11.508;2024-02-23T02:01:50;97352.09;;;9.03;100.00
21545;BME280;10933;50.754;11.508;2024-02-23T02:04:17;97354.94;;;8.93;100.00
21545;BME280;10933;50.754;11.508;2024-02-23T02:06:44;97353.13;;;8.88;100.00
21545;BME280;10933;50.754;11.508;2024-02-23T02:09:11;97344.34;;;8.82;100.00
21545;BME280;10933;50.754;11.508;2024-02-23T02:11:48;97365.25;;;8.85;100.00
21545;BME280;10933;50.754;11.508;2024-02-23T02:14:15;97365.66;;;8.79;100.00
21545;BME280;10933;50.754;11.508;2024-02-23T02:16:41;97370.53;;;8.77;100.00
21545;BME280;10933;50.754;11.508;2024-02-23T02:19:08;97369.00;;;8.71;100.00
21545;BME280;10933;50.754;11.508;2024-02-23T02:21:34;97373.72;;;8.60;100.00
21545;BME280;10933;50.754;11.508;2024-02-23T02:24:01;97376.91;;;8.62;100.00
21545;BME280;10933;50.754;11.508;2024-02-23T02:26:27;97389.03;;;8.60;100.00
21545;BME280;10933;50.754;11.508;2024-02-23T02:28:53;97378.59;;;8.58;100.00
21545;BME280;10933;50.754;11.508;2024-02-23T02:31:19;97385.25;;;8.61;100.00
21545;BME280;10933;50.754;11.508;2024-02-23T02:33:45;97408.88;;;8.45;100.00
21545;BME280;10933;50.754;11.508;2024-02-23T02:36:11;97397.03;;;8.46;100.00
21545;BME280;10933;50.754;11.508;2024-02-23T02:38:38;97389.25;;;8.44;100.00
21545;BME280;10933;50.754;11.508;2024-02-23T02:41:04;97389.19;;;8.25;100.00
21545;BME280;10933;50.754;11.508;2024-02-23T02:43:31;97411.16;;;8.33;100.00
21545;BME280;10933;50.754;11.508;2024-02-23T02:45:57;97401.03;;;8.24;100.00
21545;BME280;10933;50.754;11.508;2024-02-23T02:48:24;97402.00;;;8.34;100.00
21545;BME280;10933;50.754;11.508;2024-02-23T02:50:51;97417.00;;;8.40;100.00
21545;BME280;10933;50.754;11.508;2024-02-23T02:53:17;97417.09;;;8.30;100.00
21545;BME280;10933;50.754;11.508;2024-02-23T02:55:44;97423.06;;;8.26;100.00
21545;BME280;10933;50.754;11.508;2024-02-23T02:58:13;97406.97;;;8.21;100.00
21545;BME280;10933;50.754;11.508;2024-02-23T03:00:40;97347.69;;;8.18;100.00
21545;BME280;10933;50.754;11.508;2024-02-23T03:03:06;97430.44;;;8.16;100.00
21545;BME280;10933;50.754;11.508;2024-02-23T03:05:32;97418.78;;;8.02;100.00
21545;BME280;10933;50.754;11.508;2024-02-23T03:07:58;97468.63;;;7.84;100.00
21545;BME280;10933;50.754;11.508;2024-02-23T03:10:24;97477.97;;;7.62;100.00
21545;BME280;10933;50.754;11.508;2024-02-23T03:12:50;97452.81;;;7.53;100.00
21545;BME280;10933;50.754;11.508;2024-02-23T03:15:17;97465.72;;;7.51;100.00
21545;BME280;10933;50.754;11.508;2024-02-23T03:17:43;97463.19;;;7.31;100.00
21545;BME280;10933;50.754;11.508;2024-02-23T03:20:10;97458.97;;;7.25;100.00
21545;BME280;10933;50.754;11.508;2024-02-23T03:22:37;97466.75;;;7.21;100.00
21545;BME280;10933;50.754;11.508;2024-02-23T03:25:04;97469.25;;;7.13;100.00
21545;BME280;10933;50.754;11.508;2024-02-23T03:27:35;97465.03;;;7.01;100.00
21545;BME280;10933;50.754;11.508;2024-02-23T03:30:05;97477.91;;;6.99;100.00
21545;BME280;10933;50.754;11.508;2024-02-23T03:32:34;97482.25;;;6.90;100.00
21545;BME280;10933;50.754;11.508;2024-02-23T03:35:04;97490.78;;;6.97;100.00
21545;BME280;10933;50.754;11.508;2024-02-23T03:37:31;97495.06;;;6.98;100.00
21545;BME280;10933;50.754;11.508;2024-02-23T03:39:57;97491.31;;;6.99;100.00
21545;BME280;10933;50.754;11.508;2024-02-23T03:42:23;97509.19;;;7.09;100.00
21545;BME280;10933;50.754;11.508;2024-02-23T03:44:49;97507.59;;;7.13;100.00
21545;BME280;10933;50.754;11.508;2024-02-23T03:47:16;97518.59;;;7.06;100.00
21545;BME280;10933;50.754;11.508;2024-02-23T03:49:42;97529.84;;;7.14;100.00
21545;BME280;10933;50.754;11.508;2024-02-23T03:52:08;97530.91;;;7.13;100.00
21545;BME280;10933;50.754;11.508;2024-02-23T03:54:34;97525.00;;;7.16;100.00
21545;BME280;10933;50.754;11.508;2024-02-23T03:57:00;97527.44;;;7.12;100.00
21545;BME280;10933;50.754;11.508;2024-02-23T03:59:26;97529.72;;;7.29;100.00
21545;BME280;10933;50.754;11.508;2024-02-23T04:01:53;97535.03;;;7.39;100.00
21545;BME280;10933;50.754;11.508;2024-02-23T04:04:19;97545.78;;;7.34;100.00
21545;BME280;10933;50.754;11.508;2024-02-23T04:06:45;97546.28;;;7.36;100.00
21545;BME280;10933;50.754;11.508;2024-02-23T04:09:11;97551.91;;;7.40;100.00
21545;BME280;10933;50.754;11.508;2024-02-23T04:11:37;97562.44;;;7.31;100.00
21545;BME280;10933;50.754;11.508;2024-02-23T04:14:03;97542.09;;;7.25;100.00
21545;BME280;10933;50.754;11.508;2024-02-23T04:16:31;97564.03;;;7.32;100.00
21545;BME280;10933;50.754;11.508;2024-02-23T04:18:57;97550.09;;;7.30;100.00
21545;BME280;10933;50.754;11.508;2024-02-23T04:21:25;97569.44;;;7.22;100.00
21545;BME280;10933;50.754;11.508;2024-02-23T04:23:51;97585.81;;;7.20;100.00
21545;BME280;10933;50.754;11.508;2024-02-23T04:26:17;97583.47;;;7.14;100.00
21545;BME280;10933;50.754;11.508;2024-02-23T04:28:44;97588.81;;;7.14;100.00
21545;BME280;10933;50.754;11.508;2024-02-23T04:31:10;97609.19;;;7.15;100.00
21545;BME280;10933;50.754;11.508;2024-02-23T04:33:37;97599.53;;;7.14;100.00
21545;BME280;10933;50.754;11.508;2024-02-23T04:36:04;97615.63;;;7.14;100.00
21545;BME280;10933;50.754;11.508;2024-02-23T04:38:31;97609.75;;;7.12;100.00
21545;BME280;10933;50.754;11.508;2024-02-23T04:40:58;97612.44;;;7.12;100.00
21545;BME280;10933;50.754;11.508;2024-02-23T04:43:25;97633.59;;;7.08;100.00
21545;BME280;10933;50.754;11.508;2024-02-23T04:45:51;97631.75;;;7.03;100.00
21545;BME280;10933;50.754;11.508;2024-02-23T04:48:18;97610.59;;;7.02;100.00
21545;BME280;10933;50.754;11.508;2024-02-23T04:50:44;97608.47;;;6.99;100.00
21545;BME280;10933;50.754;11.508;2024-02-23T04:53:10;97613.06;;;6.83;100.00
21545;BME280;10933;50.754;11.508;2024-02-23T04:55:36;97616.81;;;6.87;100.00
21545;BME280;10933;50.754;11.508;2024-02-23T04:58:03;97636.69;;;6.76;100.00
21545;BME280;10933;50.754;11.508;2024-02-23T05:00:29;97636.38;;;6.83;100.00
21545;BME280;10933;50.754;11.508;2024-02-23T05:02:59;97633.47;;;6.74;100.00
21545;BME280;10933;50.754;11.508;2024-02-23T05:05:31;97637.75;;;6.80;100.00
21545;BME280;10933;50.754;11.508;2024-02-23T05:07:58;97635.88;;;6.75;100.00
21545;BME280;10933;50.754;11.508;2024-02-23T05:10:24;97636.75;;;6.61;100.00
21545;BME280;10933;50.754;11.508;2024-02-23T05:12:50;97653.59;;;6.56;100.00
21545;BME280;10933;50.754;11.508;2024-02-23T05:15:17;97652.53;;;6.57;100.00
21545;BME280;10933;50.754;11.508;2024-02-23T05:17:43;97652.25;;;6.59;100.00
21545;BME280;10933;50.754;11.508;2024-02-23T05:20:09;97664.06;;;6.53;100.00
21545;BME280;10933;50.754;11.508;2024-02-23T05:22:39;97660.34;;;6.48;100.00
21545;BME280;10933;50.754;11.508;2024-02-23T05:25:06;97657.66;;;6.48;100.00
21545;BME280;10933;50.754;11.508;2024-02-23T05:27:32;97643.69;;;6.46;100.00
21545;BME280;10933;50.754;11.508;2024-02-23T05:29:59;97654.41;;;6.46;100.00
21545;BME280;10933;50.754;11.508;2024-02-23T05:32:25;97650.41;;;6.54;100.00
21545;BME280;10933;50.754;11.508;2024-02-23T05:34:51;97655.22;;;6.47;100.00
21545;BME280;10933;50.754;11.508;2024-02-23T05:37:20;97661.94;;;6.34;100.00
21545;BME280;10933;50.754;11.508;2024-02-23T05:39:46;97679.63;;;6.35;100.00
21545;BME280;10933;50.754;11.508;2024-02-23T05:42:12;97675.88;;;6.36;100.00
21545;BME280;10933;50.754;11.508;2024-02-23T05:44:39;97659.53;;;6.33;100.00
21545;BME280;10933;50.754;11.508;2024-02-23T05:47:05;97667.31;;;6.29;100.00
21545;BME280;10933;50.754;11.508;2024-02-23T05:49:31;97702.38;;;6.17;100.00
21545;BME280;10933;50.754;11.508;2024-02-23T05:51:57;97696.22;;;6.22;100.00
21545;BME280;10933;50.754;11.508;2024-02-23T05:54:24;97684.69;;;6.22;100.00
21545;BME280;10933;50.754;11.508;2024-02-23T05:56:50;97688.97;;;6.07;100.00
21545;BME280;10933;50.754;11.508;2024-02-23T05:59:16;97691.13;;;6.05;100.00
21545;BME280;10933;50.754;11.508;2024-02-23T06:01:42;97696.22;;;6.02;100.00
21545;BME280;10933;50.754;11.508;2024-02-23T06:04:08;97706.38;;;5.95;100.00
21545;BME280;10933;50.754;11.508;2024-02-23T06:06:34;97728.59;;;5.95;100.00
21545;BME280;10933;50.754;11.508;2024-02-23T06:09:00;97725.91;;;5.90;100.00
21545;BME280;10933;50.754;11.508;2024-02-23T06:11:28;97728.03;;;5.88;100.00
21545;BME280;10933;50.754;11.508;2024-02-23T06:13:54;97713.81;;;5.82;100.00
21545;BME280;10933;50.754;11.508;2024-02-23T06:16:20;97706.84;;;5.81;100.00
21545;BME280;10933;50.754;11.508;2024-02-23T06:18:46;97709.78;;;5.80;100.00
21545;BME280;10933;50.754;11.508;2024-02-23T06:21:16;97718.63;;;5.75;100.00
21545;BME280;10933;50.754;11.508;2024-02-23T06:23:43;97716.19;;;5.69;100.00
21545;BME280;10933;50.754;11.508;2024-02-23T06:26:10;97719.97;;;5.73;100.00
21545;BME280;10933;50.754;11.508;2024-02-23T06:28:37;97715.38;;;5.68;100.00
21545;BME280;10933;50.754;11.508;2024-02-23T06:31:05;97707.91;;;5.65;100.00
21545;BME280;10933;50.754;11.508;2024-02-23T06:33:32;97712.72;;;5.68;100.00
21545;BME280;10933;50.754;11.508;2024-02-23T06:35:58;97712.44;;;5.65;100.00
21545;BME280;10933;50.754;11.508;2024-02-23T06:38:24;97709.50;;;5.66;100.00
21545;BME280;10933;50.754;11.508;2024-02-23T06:40:51;97710.56;;;5.70;100.00
21545;BME280;10933;50.754;11.508;2024-02-23T06:43:17;97703.09;;;5.77;100.00
21545;BME280;10933;50.754;11.508;2024-02-23T06:45:43;97714.88;;;5.81;100.00
21545;BME280;10933;50.754;11.508;2024-02-23T06:48:10;97721.56;;;5.84;100.00
21545;BME280;10933;50.754;11.508;2024-02-23T06:50:36;97746.44;;;5.79;100.00
21545;BME280;10933;50.754;11.508;2024-02-23T06:53:02;97754.78;;;5.88;100.00
21545;BME280;10933;50.754;11.508;2024-02-23T06:55:28;97746.47;;;5.89;100.00
21545;BME280;10933;50.754;11.508;2024-02-23T06:57:55;97744.06;;;5.88;100.00
21545;BME280;10933;50.754;11.508;2024-02-23T07:00:21;97764.47;;;5.99;100.00
21545;BME280;10933;50.754;11.508;2024-02-23T07:02:48;97781.78;;;5.81;100.00
21545;BME280;10933;50.754;11.508;2024-02-23T07:05:14;97790.44;;;5.99;100.00
21545;BME280;10933;50.754;11.508;2024-02-23T07:07:40;97780.75;;;5.93;100.00
21545;BME280;10933;50.754;11.508;2024-02-23T07:10:07;97782.94;;;6.06;100.00
21545;BME280;10933;50.754;11.508;2024-02-23T07:12:34;97790.44;;;5.99;100.00
21545;BME280;10933;50.754;11.508;2024-02-23T07:15:00;97788.28;;;6.06;100.00
21545;BME280;10933;50.754;11.508;2024-02-23T07:17:27;97824.97;;;6.00;100.00
21545;BME280;10933;50.754;11.508;2024-02-23T07:19:54;97822.03;;;6.07;100.00
21545;BME280;10933;50.754;11.508;2024-02-23T07:22:21;97839.75;;;6.28;100.00
21545;BME280;10933;50.754;11.508;2024-02-23T07:24:48;97857.97;;;6.36;100.00
21545;BME280;10933;50.754;11.508;2024-02-23T07:27:15;97861.72;;;6.40;100.00
21545;BME280;10933;50.754;11.508;2024-02-23T07:29:41;97857.75;;;6.48;100.00
21545;BME280;10933;50.754;11.508;2024-02-23T07:32:07;97862.53;;;6.41;100.00
21545;BME280;10933;50.754;11.508;2024-02-23T07:34:33;97863.84;;;6.33;100.00
21545;BME280;10933;50.754;11.508;2024-02-23T07:36:59;97864.38;;;6.30;100.00
21545;BME280;10933;50.754;11.508;2024-02-23T07:39:25;97866.56;;;6.54;100.00
21545;BME280;10933;50.754;11.508;2024-02-23T07:41:52;97885.31;;;6.43;100.00
21545;BME280;10933;50.754;11.508;2024-02-23T07:44:18;97874.81;;;6.32;100.00
21545;BME280;10933;50.754;11.508;2024-02-23T07:46:44;97870.03;;;6.44;100.00
21545;BME280;10933;50.754;11.508;2024-02-23T07:49:10;97881.03;;;6.58;100.00
21545;BME280;10933;50.754;11.508;2024-02-23T07:51:36;97882.91;;;6.57;100.00
21545;BME280;10933;50.754;11.508;2024-02-23T07:54:02;97869.19;;;6.33;100.00
21545;BME280;10933;50.754;11.508;2024-02-23T07:56:29;97882.09;;;6.46;100.00
21545;BME280;10933;50.754;11.508;2024-02-23T07:58:56;97870.84;;;6.39;100.00
21545;BME280;10933;50.754;11.508;2024-02-23T08:01:22;97882.34;;;6.45;100.00
21545;BME280;10933;50.754;11.508;2024-02-23T08:03:48;97877.81;;;6.40;100.00
21545;BME280;10933;50.754;11.508;2024-02-23T08:06:14;97869.78;;;6.40;100.00
21545;BME280;10933;50.754;11.508;2024-02-23T08:08:40;97881.03;;;6.53;100.00
21545;BME280;10933;50.754;11.508;2024-02-23T08:11:07;97883.19;;;6.66;100.00
21545;BME280;10933;50.754;11.508;2024-02-23T08:13:33;97885.88;;;6.51;100.00
21545;BME280;10933;50.754;11.508;2024-02-23T08:15:59;97881.06;;;6.68;100.00
21545;BME280;10933;50.754;11.508;2024-02-23T08:18:25;97886.41;;;6.53;100.00
21545;BME280;10933;50.754;11.508;2024-02-23T08:20:52;97877.84;;;6.71;100.00
21545;BME280;10933;50.754;11.508;2024-02-23T08:23:18;97869.81;;;6.71;100.00
21545;BME280;10933;50.754;11.508;2024-02-23T08:25:46;97880.81;;;6.79;100.00
21545;BME280;10933;50.754;11.508;2024-02-23T08:28:12;97882.09;;;6.57;100.00
21545;BME280;10933;50.754;11.508;2024-02-23T08:30:38;97885.06;;;6.70;100.00
21545;BME280;10933;50.754;11.508;2024-02-23T08:33:04;97884.56;;;6.73;100.00
21545;BME280;10933;50.754;11.508;2024-02-23T08:35:31;97902.00;;;6.91;100.00
21545;BME280;10933;50.754;11.508;2024-02-23T08:37:58;97906.28;;;6.87;100.00
21545;BME280;10933;50.754;11.508;2024-02-23T08:40:24;97915.38;;;6.96;100.00
21545;BME280;10933;50.754;11.508;2024-02-23T08:42:50;97941.69;;;7.30;100.00
21545;BME280;10933;50.754;11.508;2024-02-23T08:45:17;97944.88;;;7.22;100.00
21545;BME280;10933;50.754;11.508;2024-02-23T08:47:43;97935.75;;;6.97;100.00
21545;BME280;10933;50.754;11.508;2024-02-23T08:50:10;97929.34;;;7.03;100.00
21545;BME280;10933;50.754;11.508;2024-02-23T08:52:36;97922.91;;;7.04;100.00
21545;BME280;10933;50.754;11.508;2024-02-23T08:55:03;97917.28;;;7.01;100.00
21545;BME280;10933;50.754;11.508;2024-02-23T08:57:29;97939.50;;;6.81;100.00
21545;BME280;10933;50.754;11.508;2024-02-23T08:59:56;97947.84;;;7.00;100.00
21545;BME280;10933;50.754;11.508;2024-02-23T09:02:24;97945.41;;;6.88;100.00
21545;BME280;10933;50.754;11.508;2024-02-23T09:04:50;97950.22;;;6.76;100.00
21545;BME280;10933;50.754;11.508;2024-02-23T09:07:16;97937.63;;;6.76;100.00
21545;BME280;10933;50.754;11.508;2024-02-23T09:09:46;97945.94;;;6.95;100.00
21545;BME280;10933;50.754;11.508;2024-02-23T09:12:12;97926.09;;;6.91;100.00
21545;BME280;10933;50.754;11.508;2024-02-23T09:14:40;97922.63;;;6.96;100.00
21545;BME280;10933;50.754;11.508;2024-02-23T09:17:07;97955.59;;;7.06;100.00
21545;BME280;10933;50.754;11.508;2024-02-23T09:19:34;97949.69;;;6.94;100.00
21545;BME280;10933;50.754;11.508;2024-02-23T09:22:00;97945.69;;;6.92;100.00
21545;BME280;10933;50.754;11.508;2024-02-23T09:24:27;97931.75;;;7.20;100.00
21545;BME280;10933;50.754;11.508;2024-02-23T09:26:53;97939.00;;;7.15;100.00
21545;BME280;10933;50.754;11.508;2024-02-23T09:29:19;97916.19;;;6.97;100.00
21545;BME280;10933;50.754;11.508;2024-02-23T09:31:46;97941.13;;;7.18;100.00
21545;BME280;10933;50.754;11.508;2024-02-23T09:34:12;97944.91;;;7.12;100.00
21545;BME280;10933;50.754;11.508;2024-02-23T09:36:38;97948.63;;;7.21;100.00
21545;BME280;10933;50.754;11.508;2024-02-23T09:39:04;97955.06;;;7.35;100.00
21545;BME280;10933;50.754;11.508;2024-02-23T09:41:31;97951.84;;;7.43;100.00
21545;BME280;10933;50.754;11.508;2024-02-23T09:44:01;97950.25;;;7.52;100.00
21545;BME280;10933;50.754;11.508;2024-02-23T09:46:28;97958.28;;;7.57;100.00
21545;BME280;10933;50.754;11.508;2024-02-23T09:48:55;97948.59;;;7.72;100.00
21545;BME280;10933;50.754;11.508;2024-02-23T09:51:23;97958.81;;;7.64;100.00
21545;BME280;10933;50.754;11.508;2024-02-23T09:53:50;97953.47;;;7.64;100.00
21545;BME280;10933;50.754;11.508;2024-02-23T09:56:22;97954.53;;;7.68;100.00
21545;BME280;10933;50.754;11.508;2024-02-23T09:58:51;97945.16;;;7.51;100.00
21545;BME280;10933;50.754;11.508;2024-02-23T10:01:31;97953.19;;;7.76;100.00
21545;BME280;10933;50.754;11.508;2024-02-23T10:04:00;97948.06;;;7.75;100.00
21545;BME280;10933;50.754;11.508;2024-02-23T10:06:27;97948.06;;;7.75;100.00
21545;BME280;10933;50.754;11.508;2024-02-23T10:08:54;97946.66;;;7.97;100.00
21545;BME280;10933;50.754;11.508;2024-02-23T10:11:24;97941.59;;;7.91;100.00
21545;BME280;10933;50.754;11.508;2024-02-23T10:13:50;97942.63;;;8.05;100.00
21545;BME280;10933;50.754;11.508;2024-02-23T10:16:18;97943.19;;;7.87;100.00
21545;BME280;10933;50.754;11.508;2024-02-23T10:18:48;97946.66;;;7.97;100.00
21545;BME280;10933;50.754;11.508;2024-02-23T10:21:15;97958.19;;;8.13;100.00
21545;BME280;10933;50.754;11.508;2024-02-23T10:23:41;97975.03;;;8.29;100.00
21545;BME280;10933;50.754;11.508;2024-02-23T10:26:08;97972.69;;;8.07;100.00
21545;BME280;10933;50.754;11.508;2024-02-23T10:28:38;97981.84;;;8.01;100.00
21545;BME280;10933;50.754;11.508;2024-02-23T10:31:07;97994.25;;;7.77;100.00
21545;BME280;10933;50.754;11.508;2024-02-23T10:33:35;97991.47;;;8.07;100.00
21545;BME280;10933;50.754;11.508;2024-02-23T10:36:02;97995.78;;;8.08;100.00
21545;BME280;10933;50.754;11.508;2024-02-23T10:38:32;97989.34;;;8.14;100.00
21545;BME280;10933;50.754;11.508;2024-02-23T10:41:03;98012.94;;;8.12;100.00
21545;BME280;10933;50.754;11.508;2024-02-23T10:43:36;98001.69;;;8.10;100.00
21545;BME280;10933;50.754;11.508;2024-02-23T10:46:04;98023.97;;;8.11;100.00
21545;BME280;10933;50.754;11.508;2024-02-23T10:48:34;98024.19;;;8.35;100.00
21545;BME280;10933;50.754;11.508;2024-02-23T10:51:01;98029.03;;;8.43;100.00
21545;BME280;10933;50.754;11.508;2024-02-23T10:53:28;98031.09;;;8.61;100.00
21545;BME280;10933;50.754;11.508;2024-02-23T10:55:57;98040.81;;;8.47;100.00
21545;BME280;10933;50.754;11.508;2024-02-23T10:58:24;98023.13;;;8.36;100.00
21545;BME280;10933;50.754;11.508;2024-02-23T11:00:50;98034.09;;;8.49;100.00
21545;BME280;10933;50.754;11.508;2024-02-23T11:03:16;98023.13;;;8.25;100.00
21545;BME280;10933;50.754;11.508;2024-02-23T11:05:47;98019.09;;;8.23;100.00
21545;BME280;10933;50.754;11.508;2024-02-23T11:08:17;98023.09;;;8.46;100.00
21545;BME280;10933;50.754;11.508;2024-02-23T11:10:51;98024.16;;;8.50;100.00
21545;BME280;10933;50.754;11.508;2024-02-23T11:13:18;98022.75;;;8.63;100.00
21545;BME280;10933;50.754;11.508;2024-02-23T11:15:44;98020.28;;;7.66;100.00
21545;BME280;10933;50.754;11.508;2024-02-23T11:18:23;98003.84;;;8.03;100.00
21545;BME280;10933;50.754;11.508;2024-02-23T11:20:58;97988.53;;;8.14;100.00
21545;BME280;10933;50.754;11.508;2024-02-23T11:23:24;98011.03;;;8.43;100.00
21545;BME280;10933;50.754;11.508;2024-02-23T11:26:05;98011.88;;;8.18;100.00
21545;BME280;10933;50.754;11.508;2024-02-23T11:28:48;98007.56;;;8.22;100.00
21545;BME280;10933;50.754;11.508;2024-02-23T11:31:18;98003.84;;;8.08;100.00
21545;BME280;10933;50.754;11.508;2024-02-23T11:33:49;98008.09;;;8.40;100.00
21545;BME280;10933;50.754;11.508;2024-02-23T11:36:34;98018.28;;;8.33;100.00
21545;BME280;10933;50.754;11.508;2024-02-23T11:39:01;98022.03;;;8.42;100.00
21545;BME280;10933;50.754;11.508;2024-02-23T11:41:29;98002.16;;;8.33;100.00
21545;BME280;10933;50.754;11.508;2024-02-23T11:43:56;98022.53;;;8.49;100.00
21545;BME280;10933;50.754;11.508;2024-02-23T11:46:22;98008.81;;;8.50;100.00
21545;BME280;10933;50.754;11.508;2024-02-23T11:48:49;98020.63;;;8.65;100.00
21545;BME280;10933;50.754;11.508;2024-02-23T11:51:20;98002.66;;;8.50;100.00
21545;BME280;10933;50.754;11.508;2024-02-23T11:53:47;98004.00;;;8.47;100.00
21545;BME280;10933;50.754;11.508;2024-02-23T11:56:14;98006.47;;;8.29;100.00
21545;BME280;10933;50.754;11.508;2024-02-23T11:58:41;98002.72;;;8.19;100.00
21545;BME280;10933;50.754;11.508;2024-02-23T12:01:07;97992.53;;;8.26;100.00
21545;BME280;10933;50.754;11.508;2024-02-23T12:03:34;97996.25;;;8.41;100.00
21545;BME280;10933;50.754;11.508;2024-02-23T12:06:03;97991.56;;;8.67;100.00
21545;BME280;10933;50.754;11.508;2024-02-23T12:08:33;97990.41;;;8.08;100.00
21545;BME280;10933;50.754;11.508;2024-02-23T12:11:04;97985.59;;;8.05;100.00
21545;BME280;10933;50.754;11.508;2024-02-23T12:13:31;97985.88;;;8.04;100.00
21545;BME280;10933;50.754;11.508;2024-02-23T12:15:58;97992.84;;;8.00;100.00
21545;BME280;10933;50.754;11.508;2024-02-23T12:18:24;97974.38;;;7.88;100.00
21545;BME280;10933;50.754;11.508;2024-02-23T12:20:53;97990.06;;;8.25;100.00
21545;BME280;10933;50.754;11.508;2024-02-23T12:23:19;97997.41;;;7.99;100.00
21545;BME280;10933;50.754;11.508;2024-02-23T12:25:57;97985.59;;;8.05;100.00
21545;BME280;10933;50.754;11.508;2024-02-23T12:28:25;97990.41;;;8.08;100.00
21545;BME280;10933;50.754;11.508;2024-02-23T12:31:01;97972.44;;;7.98;100.00
21545;BME280;10933;50.754;11.508;2024-02-23T12:33:32;97975.34;;;8.12;100.00
21545;BME280;10933;50.754;11.508;2024-02-23T12:35:59;97986.72;;;7.89;100.00
21545;BME280;10933;50.754;11.508;2024-02-23T12:38:27;97976.47;;;8.01;100.00
21545;BME280;10933;50.754;11.508;2024-02-23T12:40:54;97990.94;;;8.00;100.00
21545;BME280;10933;50.754;11.508;2024-02-23T12:43:21;98002.28;;;7.82;100.00
21545;BME280;10933;50.754;11.508;2024-02-23T12:45:52;97995.28;;;7.91;100.00
21545;BME280;10933;50.754;11.508;2024-02-23T12:48:19;97985.56;;;8.10;100.00